Time;durP1;ratioP1;P1;durP2;ratioP2;P2;SDS_P1;SDS_P2;PMS_P1;PMS_P2;Temp;Humidity;BMP_temperature;BMP_pressure;BME280_temperature;BME280_humidity;BME280_pressure;Samples;Min_cycle;Max_cycle;Signal;HPM_P1;HPM_P2
2021/09/24 00:00:32;;;;;;;7.00;2.10;;;14.30;99.90;;;;;;5056243;28;20591;-81
2021/09/24 00:02:59;;;;;;;7.43;1.97;;;14.20;99.90;;;;;;5057605;28;20253;-81
2021/09/24 00:05:26;;;;;;;9.07;2.00;;;14.20;99.90;;;;;;5058365;28;20686;-81
2021/09/24 00:07:53;;;;;;;10.13;2.30;;;14.10;99.90;;;;;;5056968;28;20226;-81
2021/09/24 00:10:21;;;;;;;9.03;2.20;;;14.00;99.90;;;;;;5054299;28;20205;-82
2021/09/24 00:12:49;;;;;;;10.63;2.10;;;14.00;99.90;;;;;;5054541;28;20267;-83
2021/09/24 00:15:18;;;;;;;11.03;2.13;;;14.00;99.90;;;;;;5057718;28;20594;-81
2021/09/24 00:17:46;;;;;;;8.90;2.60;;;14.00;99.90;;;;;;5057009;28;20690;-82
2021/09/24 00:20:14;;;;;;;7.60;2.00;;;14.00;99.90;;;;;;5056612;28;20233;-82
2021/09/24 00:22:41;;;;;;;9.47;2.23;;;13.90;99.90;;;;;;5054948;28;20219;-82
2021/09/24 00:25:09;;;;;;;8.17;2.20;;;13.90;99.90;;;;;;5050905;28;20306;-81
2021/09/24 00:27:37;;;;;;;10.07;2.77;;;13.80;99.90;;;;;;5055308;28;20231;-81
2021/09/24 00:30:07;;;;;;;9.97;1.90;;;13.70;99.90;;;;;;5056227;28;20218;-81
2021/09/24 00:32:34;;;;;;;6.83;1.87;;;13.70;99.90;;;;;;5045647;28;20211;-81
2021/09/24 00:35:01;;;;;;;8.90;2.37;;;13.70;99.90;;;;;;5056396;28;20294;-81
2021/09/24 00:37:28;;;;;;;7.63;1.87;;;13.60;99.90;;;;;;5053530;28;20302;-82
2021/09/24 00:39:55;;;;;;;8.80;1.90;;;13.60;99.90;;;;;;5056053;28;20211;-82
2021/09/24 00:42:22;;;;;;;6.77;1.83;;;13.70;99.90;;;;;;5055618;28;20574;-81
2021/09/24 00:44:51;;;;;;;7.43;2.10;;;13.80;99.90;;;;;;5055928;28;20306;-81
2021/09/24 00:47:21;;;;;;;6.87;2.20;;;13.80;99.90;;;;;;5054770;28;20229;-81
2021/09/24 00:49:49;;;;;;;11.53;2.30;;;13.70;99.90;;;;;;5055805;28;20226;-82
2021/09/24 00:52:18;;;;;;;8.43;2.13;;;13.80;99.90;;;;;;5055095;28;20215;-81
2021/09/24 00:54:47;;;;;;;9.80;1.90;;;13.80;99.90;;;;;;5055518;28;20202;-81
2021/09/24 00:57:14;;;;;;;7.80;1.80;;;13.80;99.90;;;;;;5057747;28;20226;-81
2021/09/24 00:59:41;;;;;;;7.17;2.20;;;13.80;99.90;;;;;;5058337;28;20281;-81
2021/09/24 01:02:08;;;;;;;8.20;2.17;;;13.80;99.90;;;;;;5057241;28;20210;-82
2021/09/24 01:04:36;;;;;;;7.30;2.10;;;13.80;99.90;;;;;;5057651;28;20233;-81
2021/09/24 01:07:04;;;;;;;11.37;2.73;;;13.90;99.90;;;;;;5056721;28;20219;-82
2021/09/24 01:09:31;;;;;;;9.30;2.53;;;13.90;99.90;;;;;;5055053;28;20209;-81
2021/09/24 01:11:58;;;;;;;14.00;2.03;;;13.90;99.90;;;;;;5056274;28;20713;-81
2021/09/24 01:14:28;;;;;;;12.83;2.53;;;13.90;99.90;;;;;;5049142;28;20205;-81
2021/09/24 01:16:55;;;;;;;12.53;2.60;;;13.90;99.90;;;;;;5047280;28;20603;-81
2021/09/24 01:19:22;;;;;;;13.30;2.20;;;14.00;99.90;;;;;;5054908;28;20290;-81
2021/09/24 01:21:51;;;;;;;9.70;1.80;;;13.90;99.90;;;;;;5054473;28;20207;-81
2021/09/24 01:24:18;;;;;;;9.70;2.37;;;13.80;99.90;;;;;;5057215;28;20222;-82
2021/09/24 01:26:50;;;;;;;7.53;2.00;;;13.70;99.90;;;;;;5060967;28;20590;-81
2021/09/24 01:29:16;;;;;;;10.00;2.40;;;13.70;99.90;;;;;;5046757;28;20584;-82
2021/09/24 01:31:44;;;;;;;13.67;2.40;;;13.60;99.90;;;;;;5060743;28;20289;-81
2021/09/24 01:34:11;;;;;;;7.83;2.60;;;13.50;99.90;;;;;;5061296;28;20205;-82
2021/09/24 01:36:38;;;;;;;9.07;2.30;;;13.50;99.90;;;;;;5061491;28;20235;-82
2021/09/24 01:39:08;;;;;;;9.87;2.53;;;13.40;99.90;;;;;;5055816;28;20567;-81
2021/09/24 01:41:38;;;;;;;8.60;2.40;;;13.20;99.90;;;;;;5053166;28;20207;-81
2021/09/24 01:44:05;;;;;;;10.10;2.57;;;13.30;99.90;;;;;;5060564;28;20250;-81
2021/09/24 01:46:32;;;;;;;6.47;2.00;;;13.20;99.90;;;;;;5061572;28;20322;-82
2021/09/24 01:48:59;;;;;;;7.80;2.17;;;13.30;99.90;;;;;;5060514;28;20321;-82
2021/09/24 01:51:26;;;;;;;12.50;2.90;;;13.20;99.90;;;;;;5060062;28;20730;-81
2021/09/24 01:53:53;;;;;;;8.77;2.40;;;13.20;99.90;;;;;;5059712;28;20211;-81
2021/09/24 01:56:23;;;;;;;8.20;1.93;;;13.20;99.90;;;;;;5056857;28;20263;-82
2021/09/24 01:58:50;;;;;;;6.53;2.10;;;13.30;99.90;;;;;;5053203;28;20267;-82
2021/09/24 02:01:17;;;;;;;9.30;2.93;;;13.20;99.90;;;;;;5051853;28;20655;-82
2021/09/24 02:03:44;;;;;;;8.17;2.73;;;13.20;99.90;;;;;;5058697;28;20306;-82
2021/09/24 02:06:11;;;;;;;11.70;2.43;;;13.00;99.90;;;;;;5057019;28;20287;-82
2021/09/24 02:08:38;;;;;;;9.90;2.10;;;13.20;99.90;;;;;;5051767;28;20212;-82
2021/09/24 02:11:05;;;;;;;8.93;2.97;;;13.10;99.90;;;;;;5055982;28;20659;-82
2021/09/24 02:13:34;;;;;;;7.57;2.30;;;13.00;99.90;;;;;;5057206;28;20199;-82
2021/09/24 02:16:00;;;;;;;9.13;2.77;;;13.00;99.90;;;;;;5057649;28;20267;-81
2021/09/24 02:18:27;;;;;;;6.43;2.13;;;12.90;99.90;;;;;;5057042;28;20333;-81
2021/09/24 02:20:54;;;;;;;5.80;2.40;;;12.90;99.90;;;;;;5057263;28;20326;-82
2021/09/24 02:23:21;;;;;;;7.77;2.70;;;12.90;99.90;;;;;;5055618;28;20299;-82
2021/09/24 02:25:48;;;;;;;11.10;2.37;;;12.90;99.90;;;;;;5056482;28;20205;-82
2021/09/24 02:28:15;;;;;;;10.70;2.50;;;12.90;99.90;;;;;;5058004;28;20769;-82
2021/09/24 02:30:43;;;;;;;12.13;3.00;;;13.00;99.90;;;;;;5058466;28;20191;-81
2021/09/24 02:33:11;;;;;;;10.17;2.73;;;13.10;99.90;;;;;;5054322;28;20652;-81
2021/09/24 02:35:38;;;;;;;7.73;2.43;;;13.10;99.90;;;;;;5051873;28;20301;-81
2021/09/24 02:38:06;;;;;;;12.37;2.57;;;13.10;99.90;;;;;;5054843;28;20252;-82
2021/09/24 02:40:32;;;;;;;8.70;2.83;;;13.10;99.90;;;;;;5056638;28;20199;-83
2021/09/24 02:42:59;;;;;;;10.17;3.07;;;13.00;99.90;;;;;;5057814;28;20217;-82
2021/09/24 02:45:26;;;;;;;12.83;2.50;;;13.20;99.90;;;;;;5056571;28;20222;-82
2021/09/24 02:47:54;;;;;;;11.77;2.77;;;13.10;99.90;;;;;;5056106;28;20241;-82
2021/09/24 02:50:21;;;;;;;11.07;2.37;;;13.00;99.90;;;;;;5057017;28;20685;-81
2021/09/24 02:52:48;;;;;;;9.10;2.80;;;12.90;99.90;;;;;;5058201;28;20230;-82
2021/09/24 02:55:15;;;;;;;5.70;1.80;;;13.00;99.90;;;;;;5057397;28;20619;-82
2021/09/24 02:57:42;;;;;;;11.03;2.77;;;12.80;99.90;;;;;;5057550;28;20306;-81
2021/09/24 03:00:10;;;;;;;5.70;2.43;;;12.80;99.90;;;;;;5057442;28;20213;-82
2021/09/24 03:02:37;;;;;;;9.77;2.90;;;12.70;99.90;;;;;;5057535;28;20293;-82
2021/09/24 03:05:07;;;;;;;10.10;2.40;;;12.70;99.90;;;;;;5057305;28;20307;-82
2021/09/24 03:07:34;;;;;;;10.37;2.87;;;12.60;99.90;;;;;;5055880;28;20687;-82
2021/09/24 03:10:00;;;;;;;7.10;2.40;;;12.50;99.90;;;;;;5058043;28;20286;-82
2021/09/24 03:12:27;;;;;;;7.73;2.63;;;12.60;99.90;;;;;;5057261;28;20236;-82
2021/09/24 03:14:54;;;;;;;10.67;3.63;;;12.30;99.90;;;;;;5057872;28;20243;-81
2021/09/24 03:17:21;;;;;;;8.60;2.70;;;12.40;99.90;;;;;;5057128;28;20278;-82
2021/09/24 03:19:48;;;;;;;12.33;2.93;;;12.40;99.90;;;;;;5054390;28;20194;-82
2021/09/24 03:22:16;;;;;;;5.93;2.83;;;12.40;99.90;;;;;;5055024;28;20648;-82
2021/09/24 03:24:43;;;;;;;7.63;2.80;;;12.40;99.90;;;;;;5055135;28;20222;-82
2021/09/24 03:27:10;;;;;;;11.07;3.50;;;12.50;99.90;;;;;;5056320;28;20215;-82
2021/09/24 03:29:37;;;;;;;9.93;2.80;;;12.50;99.90;;;;;;5055128;28;20691;-82
2021/09/24 03:32:04;;;;;;;7.17;3.27;;;12.40;99.90;;;;;;5055480;28;20282;-81
2021/09/24 03:34:31;;;;;;;6.80;2.70;;;12.40;99.90;;;;;;5054410;28;20659;-81
2021/09/24 03:36:58;;;;;;;8.43;2.87;;;12.40;99.90;;;;;;5056345;28;20251;-82
2021/09/24 03:39:26;;;;;;;10.30;2.87;;;12.30;99.90;;;;;;5056420;28;20294;-82
2021/09/24 03:41:54;;;;;;;10.00;2.80;;;12.30;99.90;;;;;;5056358;28;20319;-81
2021/09/24 03:44:21;;;;;;;11.40;3.17;;;12.30;99.90;;;;;;5056675;28;20223;-82
2021/09/24 03:46:48;;;;;;;3.53;2.47;;;12.30;99.90;;;;;;5056555;28;20740;-81
2021/09/24 03:49:15;;;;;;;7.33;3.33;;;12.20;99.90;;;;;;5054733;28;20202;-82
2021/09/24 03:51:42;;;;;;;8.57;2.90;;;12.10;99.90;;;;;;5056693;28;20735;-81
2021/09/24 03:54:09;;;;;;;8.23;2.90;;;12.00;99.90;;;;;;5055557;28;20742;-82
2021/09/24 03:56:37;;;;;;;10.13;3.10;;;12.00;99.90;;;;;;5056409;28;20694;-81
2021/09/24 03:59:04;;;;;;;11.13;3.00;;;12.10;99.90;;;;;;5055017;28;20199;-82
2021/09/24 04:01:30;;;;;;;7.27;2.70;;;11.90;99.90;;;;;;5048387;28;20858;-82
2021/09/24 04:03:57;;;;;;;9.57;3.40;;;12.00;99.90;;;;;;5045946;28;20203;-82
2021/09/24 04:06:24;;;;;;;7.10;3.17;;;11.90;99.90;;;;;;5052258;28;20206;-81
2021/09/24 04:08:51;;;;;;;9.23;3.30;;;11.80;99.90;;;;;;5043457;28;20200;-82
2021/09/24 04:11:18;;;;;;;9.03;3.63;;;11.80;99.90;;;;;;5041643;28;20211;-82
2021/09/24 04:13:46;;;;;;;6.93;3.33;;;11.80;99.90;;;;;;5053608;28;20718;-82
2021/09/24 04:16:14;;;;;;;11.03;3.57;;;11.80;99.90;;;;;;5042706;28;20205;-82
2021/09/24 04:18:41;;;;;;;12.73;3.57;;;11.70;99.90;;;;;;5049152;28;20198;-82
2021/09/24 04:21:07;;;;;;;8.03;3.67;;;11.70;99.90;;;;;;5052622;28;20207;-82
2021/09/24 04:23:34;;;;;;;10.70;4.00;;;11.60;99.90;;;;;;5049033;28;20286;-81
2021/09/24 04:26:01;;;;;;;6.23;3.30;;;11.70;99.90;;;;;;5053511;28;20317;-81
2021/09/24 04:28:28;;;;;;;8.47;3.50;;;11.70;99.90;;;;;;5051215;28;20229;-82
2021/09/24 04:30:57;;;;;;;7.93;4.57;;;11.70;99.90;;;;;;5052463;28;20194;-82
2021/09/24 04:33:24;;;;;;;8.33;3.60;;;11.70;99.90;;;;;;5053102;28;20636;-81
2021/09/24 04:35:50;;;;;;;7.20;3.77;;;11.70;99.90;;;;;;5052781;28;20233;-82
2021/09/24 04:38:17;;;;;;;9.80;3.93;;;11.70;99.90;;;;;;5052981;28;20218;-82
2021/09/24 04:40:44;;;;;;;13.00;3.63;;;12.00;99.90;;;;;;5051366;28;20209;-81
2021/09/24 04:43:11;;;;;;;6.70;3.47;;;11.90;99.90;;;;;;5048239;28;20211;-82
2021/09/24 04:45:38;;;;;;;9.23;3.80;;;12.00;99.90;;;;;;5049820;28;20219;-84
2021/09/24 04:48:06;;;;;;;7.37;4.03;;;12.10;99.90;;;;;;5050833;28;20695;-82
2021/09/24 04:50:33;;;;;;;7.40;3.93;;;12.00;99.90;;;;;;5051555;28;20203;-81
2021/09/24 04:53:00;;;;;;;12.47;5.73;;;12.00;99.90;;;;;;5052019;28;20296;-82
2021/09/24 04:55:27;;;;;;;17.97;8.53;;;12.00;99.90;;;;;;5041263;28;20203;-81
2021/09/24 04:57:54;;;;;;;8.43;4.63;;;12.00;99.90;;;;;;5051031;28;20570;-82
2021/09/24 05:00:21;;;;;;;7.07;3.63;;;12.00;99.90;;;;;;5052521;28;20239;-82
2021/09/24 05:02:48;;;;;;;9.70;4.63;;;12.00;99.90;;;;;;5053341;28;20217;-82
2021/09/24 05:05:16;;;;;;;7.33;4.13;;;12.10;99.90;;;;;;5054345;28;20310;-82
2021/09/24 05:07:43;;;;;;;8.83;4.30;;;12.10;99.90;;;;;;5054942;28;20306;-81
2021/09/24 05:10:11;;;;;;;8.87;4.57;;;12.20;99.90;;;;;;5055627;28;20203;-82
2021/09/24 05:12:37;;;;;;;16.67;8.30;;;12.20;99.90;;;;;;5055012;28;20650;-81
2021/09/24 05:15:05;;;;;;;13.77;7.43;;;12.20;99.90;;;;;;5053437;28;20213;-82
2021/09/24 05:17:33;;;;;;;12.00;5.20;;;12.20;99.90;;;;;;5050997;28;20229;-81
2021/09/24 05:20:00;;;;;;;7.70;4.63;;;12.20;99.90;;;;;;5049753;28;20199;-82
2021/09/24 05:22:28;;;;;;;9.20;4.33;;;12.30;99.90;;;;;;5051524;28;20340;-81
2021/09/24 05:24:55;;;;;;;11.97;4.80;;;12.30;99.90;;;;;;5052730;28;20228;-82
2021/09/24 05:27:22;;;;;;;11.57;5.73;;;12.40;99.90;;;;;;5050395;28;20250;-82
2021/09/24 05:29:49;;;;;;;7.90;4.90;;;12.50;99.90;;;;;;5047229;28;20200;-81
2021/09/24 05:32:17;;;;;;;7.37;4.50;;;12.70;99.90;;;;;;5055010;28;20213;-81
2021/09/24 05:34:44;;;;;;;10.70;5.23;;;12.60;99.90;;;;;;5051170;28;20290;-82
2021/09/24 05:37:11;;;;;;;9.30;5.23;;;12.70;99.90;;;;;;5052124;28;20211;-82
2021/09/24 05:39:41;;;;;;;9.73;5.03;;;12.80;99.90;;;;;;5054286;28;20234;-81
2021/09/24 05:42:08;;;;;;;12.53;5.17;;;12.80;99.90;;;;;;5057821;28;20722;-81
2021/09/24 05:44:35;;;;;;;8.27;4.83;;;12.90;99.90;;;;;;5061170;28;20261;-81
2021/09/24 05:47:02;;;;;;;10.57;5.07;;;13.00;99.90;;;;;;5054571;28;20318;-81
2021/09/24 05:49:30;;;;;;;11.37;5.90;;;13.10;99.90;;;;;;5059397;28;20283;-82
2021/09/24 05:51:58;;;;;;;15.17;6.23;;;13.10;99.90;;;;;;5060067;28;20207;-82
2021/09/24 05:54:25;;;;;;;11.30;5.43;;;13.20;99.90;;;;;;5055694;28;20194;-82
2021/09/24 05:56:54;;;;;;;10.67;4.80;;;13.40;99.90;;;;;;5054855;28;20234;-81
2021/09/24 05:59:21;;;;;;;11.67;5.70;;;13.60;99.90;;;;;;5057106;28;20268;-82
2021/09/24 06:01:48;;;;;;;10.93;5.00;;;13.50;99.90;;;;;;5053812;28;20204;-82
2021/09/24 06:04:16;;;;;;;8.77;5.30;;;13.70;99.90;;;;;;5056809;28;20214;-82
2021/09/24 06:06:43;;;;;;;9.43;5.57;;;13.70;99.90;;;;;;5057542;28;20322;-82
2021/09/24 06:09:10;;;;;;;13.83;5.17;;;13.70;99.90;;;;;;5056872;28;20199;-81
2021/09/24 06:11:37;;;;;;;13.73;5.23;;;13.80;99.90;;;;;;5057904;28;20203;-81
2021/09/24 06:14:06;;;;;;;7.83;4.40;;;13.90;99.90;;;;;;5057365;28;20573;-81
2021/09/24 06:16:33;;;;;;;7.47;4.47;;;13.90;99.90;;;;;;5058544;28;20233;-81
2021/09/24 06:19:00;;;;;;;12.50;4.30;;;14.00;99.90;;;;;;5058584;28;20262;-82
2021/09/24 06:21:28;;;;;;;8.60;4.70;;;14.00;99.90;;;;;;5059467;28;20289;-82
2021/09/24 06:23:56;;;;;;;9.10;4.30;;;13.90;99.90;;;;;;5054447;28;20207;-81
2021/09/24 06:26:23;;;;;;;11.73;4.43;;;14.00;99.90;;;;;;5057943;28;20253;-81
2021/09/24 06:28:49;;;;;;;8.77;4.60;;;14.10;99.90;;;;;;5059981;28;20281;-81
2021/09/24 06:31:18;;;;;;;11.40;4.20;;;14.10;99.90;;;;;;5060567;28;20206;-81
2021/09/24 06:33:45;;;;;;;9.03;4.13;;;14.20;99.90;;;;;;5073359;28;20230;-81
2021/09/24 06:36:13;;;;;;;6.57;4.03;;;14.20;99.90;;;;;;5059798;28;20307;-82
2021/09/24 06:38:40;;;;;;;8.73;3.47;;;14.30;99.90;;;;;;5057241;28;20237;-81
2021/09/24 06:41:07;;;;;;;8.27;3.03;;;14.30;99.90;;;;;;5058848;28;20812;-81
2021/09/24 06:43:34;;;;;;;6.60;2.73;;;14.20;99.90;;;;;;5056154;28;20195;-82
2021/09/24 06:46:01;;;;;;;8.17;3.03;;;14.40;99.90;;;;;;5057297;28;20233;-81
2021/09/24 06:48:29;;;;;;;12.60;5.10;;;14.40;99.90;;;;;;5052191;28;20234;-81
2021/09/24 06:50:56;;;;;;;6.70;2.53;;;14.50;99.90;;;;;;5058277;28;20290;-81
2021/09/24 06:53:23;;;;;;;6.60;2.50;;;14.50;99.90;;;;;;5058719;28;20739;-82
2021/09/24 06:55:50;;;;;;;8.93;2.63;;;14.60;99.90;;;;;;5056889;28;20302;-81
2021/09/24 06:58:17;;;;;;;12.43;2.70;;;14.70;99.90;;;;;;5058014;28;20223;-81
2021/09/24 07:00:43;;;;;;;3.43;2.30;;;14.70;99.90;;;;;;5050846;28;20192;-82
2021/09/24 07:03:10;;;;;;;6.87;2.90;;;14.90;99.90;;;;;;5053401;28;20718;-82
2021/09/24 07:05:38;;;;;;;10.90;3.30;;;14.80;99.90;;;;;;5058136;28;20233;-82
2021/09/24 07:08:06;;;;;;;11.43;5.10;;;14.80;99.90;;;;;;5054281;28;20226;-82
2021/09/24 07:10:32;;;;;;;9.63;2.95;;;14.90;99.90;;;;;;5055583;28;20206;-82
2021/09/24 07:12:59;;;;;;;7.50;2.30;;;14.90;99.90;;;;;;5056860;28;20210;-82
2021/09/24 07:15:26;;;;;;;8.47;2.90;;;14.90;99.90;;;;;;5060356;28;20622;-82
2021/09/24 07:17:53;;;;;;;11.50;2.97;;;14.90;99.90;;;;;;5057043;28;20254;-81
2021/09/24 07:20:21;;;;;;;6.10;3.07;;;14.90;99.90;;;;;;5053607;28;20234;-83
2021/09/24 07:22:50;;;;;;;8.87;2.87;;;14.90;99.90;;;;;;5054757;28;20269;-81
2021/09/24 07:25:17;;;;;;;10.07;3.77;;;14.90;99.90;;;;;;5055493;28;20195;-82
2021/09/24 07:27:44;;;;;;;7.73;3.33;;;15.00;99.90;;;;;;5054854;28;20297;-82
2021/09/24 07:30:12;;;;;;;7.40;3.17;;;15.00;99.90;;;;;;5054331;28;20213;-81
2021/09/24 07:32:41;;;;;;;6.47;3.00;;;15.00;99.90;;;;;;5045309;28;20270;-81
2021/09/24 07:35:09;;;;;;;8.73;2.90;;;15.10;99.90;;;;;;5056180;28;20856;-82
2021/09/24 07:37:36;;;;;;;9.37;3.23;;;15.10;99.90;;;;;;5055226;28;20238;-81
2021/09/24 07:40:06;;;;;;;13.00;3.20;;;15.10;99.90;;;;;;5059948;28;20580;-82
2021/09/24 07:42:32;;;;;;;6.05;2.83;;;15.20;99.90;;;;;;5052395;28;20820;-83
2021/09/24 07:44:59;;;;;;;12.87;3.30;;;15.20;99.90;;;;;;5054795;28;20289;-82
2021/09/24 07:47:26;;;;;;;8.00;3.03;;;15.20;99.90;;;;;;5051210;28;20227;-82
2021/09/24 07:49:53;;;;;;;10.83;2.60;;;15.30;99.90;;;;;;5053122;28;20291;-82
2021/09/24 07:52:20;;;;;;;11.63;3.03;;;15.30;99.90;;;;;;5054469;28;20297;-83
2021/09/24 07:54:47;;;;;;;11.07;2.60;;;15.40;99.90;;;;;;5053858;28;20290;-83
2021/09/24 07:57:15;;;;;;;7.27;2.80;;;15.40;99.90;;;;;;5053890;28;20226;-82
2021/09/24 07:59:42;;;;;;;8.88;3.13;;;15.40;99.90;;;;;;5054289;28;20217;-82
2021/09/24 08:02:09;;;;;;;11.18;3.13;;;15.40;99.90;;;;;;5054106;28;20226;-83
2021/09/24 08:04:36;;;;;;;9.30;3.20;;;15.40;99.90;;;;;;5052008;28;20199;-83
2021/09/24 08:07:05;;;;;;;10.30;3.03;;;15.40;99.90;;;;;;5052507;28;20231;-83
2021/09/24 08:09:32;;;;;;;10.50;3.03;;;15.40;99.90;;;;;;5052238;28;20203;-83
2021/09/24 08:11:59;;;;;;;6.43;2.75;;;15.40;99.90;;;;;;5051761;28;20282;-82
2021/09/24 08:14:27;;;;;;;9.57;3.07;;;15.50;99.90;;;;;;5052446;28;20199;-83
2021/09/24 08:16:54;;;;;;;8.90;3.07;;;15.60;99.90;;;;;;5052723;28;20225;-80
2021/09/24 08:19:21;;;;;;;8.15;2.95;;;15.60;99.90;;;;;;5057461;28;20230;-79
2021/09/24 08:21:48;;;;;;;8.17;2.90;;;15.70;99.90;;;;;;5058699;28;20230;-80
2021/09/24 08:24:15;;;;;;;6.63;3.00;;;15.60;99.90;;;;;;5045941;28;20691;-79
2021/09/24 08:26:41;;;;;;;9.63;3.23;;;15.60;99.90;;;;;;5059149;28;20250;-79
2021/09/24 08:29:08;;;;;;;9.07;3.20;;;15.70;99.90;;;;;;5052774;28;20287;-80
2021/09/24 08:31:37;;;;;;;9.55;3.17;;;15.70;99.90;;;;;;5042795;28;20634;-80
2021/09/24 08:34:04;;;;;;;7.00;3.27;;;15.70;99.90;;;;;;5050968;28;20226;-79
2021/09/24 08:36:33;;;;;;;7.00;3.47;;;15.80;99.90;;;;;;5063284;28;20287;-79
2021/09/24 08:39:00;;;;;;;9.57;3.13;;;15.70;99.90;;;;;;5052196;28;20195;-79
2021/09/24 08:41:29;;;;;;;10.00;3.00;;;15.80;99.90;;;;;;5055018;28;20230;-79
2021/09/24 08:43:56;;;;;;;8.50;3.08;;;16.00;99.90;;;;;;5054903;28;20234;-79
2021/09/24 08:46:23;;;;;;;8.00;2.92;;;16.00;99.90;;;;;;5055129;28;20211;-79
2021/09/24 08:48:52;;;;;;;12.68;4.25;;;16.00;99.90;;;;;;5055154;28;20732;-79
2021/09/24 08:51:18;;;;;;;10.50;3.58;;;16.00;99.90;;;;;;5057482;28;20213;-79
2021/09/24 08:53:45;;;;;;;7.75;3.17;;;16.10;99.90;;;;;;5057654;28;20231;-78
2021/09/24 08:56:14;;;;;;;7.75;2.72;;;16.10;99.90;;;;;;5051333;28;20282;-80
2021/09/24 08:58:41;;;;;;;11.43;3.45;;;16.10;99.90;;;;;;5059757;28;20266;-80
2021/09/24 09:01:08;;;;;;;8.17;3.17;;;16.20;99.90;;;;;;5056342;28;20197;-79
2021/09/24 09:03:40;;;;;;;5.53;3.25;;;16.20;99.90;;;;;;5054940;28;20226;-80
2021/09/24 09:06:09;;;;;;;13.05;3.35;;;16.30;99.90;;;;;;5055014;28;20245;-81
2021/09/24 09:08:37;;;;;;;9.43;3.33;;;16.40;99.90;;;;;;5056270;28;20301;-80
2021/09/24 09:11:06;;;;;;;7.47;3.13;;;16.50;99.90;;;;;;5057402;28;20230;-80
2021/09/24 09:13:37;;;;;;;10.43;3.50;;;16.60;99.90;;;;;;5059833;28;20295;-80
2021/09/24 09:16:06;;;;;;;8.05;3.92;;;16.80;99.90;;;;;;5054658;28;20209;-80
2021/09/24 09:18:36;;;;;;;8.40;3.63;;;16.90;99.90;;;;;;5059562;28;20203;-80
2021/09/24 09:21:05;;;;;;;8.00;3.38;;;17.00;99.90;;;;;;5066125;28;20647;-80
2021/09/24 09:23:36;;;;;;;8.95;3.42;;;17.10;99.90;;;;;;5064650;28;20213;-80
2021/09/24 09:26:07;;;;;;;6.90;3.05;;;17.10;99.90;;;;;;5065753;28;20207;-79
2021/09/24 09:28:38;;;;;;;7.57;3.25;;;17.20;99.90;;;;;;5067220;28;20226;-79
2021/09/24 09:31:20;;;;;;;9.80;4.05;;;17.20;99.90;;;;;;5053855;28;20227;-79
2021/09/24 09:33:47;;;;;;;12.60;6.47;;;17.20;99.90;;;;;;5048817;28;20214;-79
2021/09/24 09:36:23;;;;;;;8.27;3.55;;;17.30;99.90;;;;;;5060201;28;20648;-79
2021/09/24 09:38:51;;;;;;;5.90;3.67;;;17.40;99.90;;;;;;5062967;28;20206;-80
2021/09/24 09:41:20;;;;;;;6.75;4.50;;;17.60;99.90;;;;;;5063867;28;20217;-79
2021/09/24 09:43:48;;;;;;;8.15;3.33;;;17.60;99.90;;;;;;5067997;28;20208;-80
2021/09/24 09:46:17;;;;;;;8.98;4.70;;;17.70;99.90;;;;;;5066991;28;20251;-79
2021/09/24 09:48:59;;;;;;;8.07;4.10;;;17.80;99.90;;;;;;5062871;28;20233;-79
2021/09/24 09:51:26;;;;;;;12.88;4.65;;;17.70;99.90;;;;;;5065431;28;20226;-79
2021/09/24 09:53:54;;;;;;;12.68;4.85;;;17.60;99.90;;;;;;5067371;28;20223;-79
2021/09/24 09:56:21;;;;;;;11.00;4.07;;;17.70;99.90;;;;;;5066850;28;20211;-79
2021/09/24 09:58:49;;;;;;;7.35;4.13;;;17.80;99.90;;;;;;5056862;28;20214;-79
2021/09/24 10:01:18;;;;;;;9.70;4.43;;;18.00;99.90;;;;;;5049919;28;20196;-79
2021/09/24 10:03:49;;;;;;;8.57;4.65;;;18.10;99.90;;;;;;5049126;28;20234;-79
2021/09/24 10:06:23;;;;;;;8.05;4.60;;;18.60;99.90;;;;;;5055896;28;20305;-80
2021/09/24 10:08:52;;;;;;;9.35;5.22;;;18.90;99.90;;;;;;5056063;28;20293;-80
2021/09/24 10:11:28;;;;;;;10.50;5.28;;;18.80;99.90;;;;;;5051930;28;20233;-80
2021/09/24 10:13:57;;;;;;;6.97;5.35;;;18.70;99.90;;;;;;5054737;28;20644;-80
2021/09/24 10:16:26;;;;;;;10.63;5.65;;;18.60;99.90;;;;;;5055675;28;20689;-79
2021/09/24 10:18:54;;;;;;;12.70;5.95;;;18.50;99.90;;;;;;5053679;28;20230;-79
2021/09/24 10:21:21;;;;;;;9.02;5.40;;;18.60;99.90;;;;;;5051815;28;20639;-80
2021/09/24 10:23:49;;;;;;;9.80;5.88;;;18.60;99.90;;;;;;5056149;28;20232;-80
2021/09/24 10:26:24;;;;;;;13.43;6.63;;;18.60;99.90;;;;;;5057764;28;20289;-80
2021/09/24 10:28:57;;;;;;;15.13;7.32;;;18.70;99.90;;;;;;5059369;28;20293;-80
2021/09/24 10:31:26;;;;;;;14.02;8.27;;;18.90;99.90;;;;;;5057820;28;20242;-80
2021/09/24 10:34:00;;;;;;;12.10;7.53;;;19.20;99.90;;;;;;5057206;28;20210;-80
2021/09/24 10:36:45;;;;;;;15.00;8.35;;;19.40;99.90;;;;;;5061696;28;20222;-80
2021/09/24 10:39:37;;;;;;;13.02;8.50;;;19.40;99.90;;;;;;5061026;28;20274;-81
2021/09/24 10:42:30;;;;;;;18.88;10.23;;;19.50;99.90;;;;;;5053447;28;20666;-80
2021/09/24 10:45:18;;;;;;;17.52;10.00;;;20.10;99.90;;;;;;5060987;28;20222;-80
2021/09/24 10:47:54;;;;;;;16.60;9.75;;;19.90;99.90;;;;;;5065429;28;20685;-81
2021/09/24 10:51:03;;;;;;;17.65;10.13;;;19.60;99.90;;;;;;5058636;28;20203;-81
2021/09/24 10:53:46;;;;;;;17.10;8.77;;;19.50;99.90;;;;;;5059654;28;20258;-79
2021/09/24 10:56:29;;;;;;;14.45;8.65;;;19.30;99.90;;;;;;5057731;28;20203;-80
2021/09/24 10:58:59;;;;;;;14.50;8.63;;;19.10;99.90;;;;;;5049447;28;20241;-80
2021/09/24 11:01:32;;;;;;;13.80;8.52;;;19.10;99.90;;;;;;5052710;28;20263;-80
2021/09/24 11:04:02;;;;;;;13.00;8.45;;;18.90;99.90;;;;;;5073800;28;20211;-81
2021/09/24 11:06:37;;;;;;;14.15;8.90;;;19.00;99.90;;;;;;5070541;28;20671;-81
2021/09/24 11:09:05;;;;;;;13.43;9.25;;;19.40;99.90;;;;;;5064415;28;20209;-80
2021/09/24 11:11:34;;;;;;;13.80;8.60;;;19.60;99.90;;;;;;5060658;28;20209;-80
2021/09/24 11:14:32;;;;;;;14.40;8.88;;;19.70;99.90;;;;;;5063692;28;20640;-81
2021/09/24 11:17:00;;;;;;;14.45;9.07;;;19.80;99.90;;;;;;5063916;28;20219;-80
2021/09/24 11:19:39;;;;;;;13.27;9.00;;;20.00;99.90;;;;;;5064496;28;20195;-80
2021/09/24 11:22:12;;;;;;;17.45;10.38;;;20.00;99.90;;;;;;5059535;28;20203;-80
2021/09/24 11:24:41;;;;;;;16.00;10.50;;;19.90;99.90;;;;;;5051040;28;20234;-80
2021/09/24 11:27:10;;;;;;;16.40;10.23;;;20.00;99.90;;;;;;5061396;28;20295;-80
2021/09/24 11:29:42;;;;;;;16.85;10.40;;;20.10;99.90;;;;;;5065974;28;20210;-80
2021/09/24 11:32:11;;;;;;;17.48;11.13;;;20.30;99.90;;;;;;5065941;28;20199;-80
2021/09/24 11:34:55;;;;;;;17.73;11.38;;;20.20;99.90;;;;;;5070821;28;20203;-80
2021/09/24 11:37:23;;;;;;;17.55;11.95;;;19.90;99.90;;;;;;5065719;28;20278;-80
2021/09/24 11:40:00;;;;;;;16.95;12.00;;;19.90;99.90;;;;;;5051970;28;20235;-81
2021/09/24 11:42:28;;;;;;;18.70;11.82;;;19.80;99.90;;;;;;5048875;28;20219;-81
2021/09/24 11:44:58;;;;;;;20.08;13.23;;;19.70;99.90;;;;;;5051577;28;20262;-80
2021/09/24 11:47:28;;;;;;;20.10;12.05;;;19.50;99.90;;;;;;5054898;28;20223;-80
2021/09/24 11:49:56;;;;;;;19.35;12.82;;;19.50;99.90;;;;;;5056085;28;20285;-80
2021/09/24 11:52:25;;;;;;;18.10;12.38;;;19.30;99.90;;;;;;5058040;28;20203;-81
2021/09/24 11:54:52;;;;;;;19.40;13.30;;;19.20;99.90;;;;;;5054895;28;20219;-81
2021/09/24 11:57:19;;;;;;;20.85;14.38;;;19.10;99.90;;;;;;5055005;28;20283;-80
2021/09/24 11:59:47;;;;;;;27.00;17.02;;;19.00;99.90;;;;;;5054932;28;20580;-80
2021/09/24 12:02:23;;;;;;;22.40;16.17;;;19.10;99.90;;;;;;5047577;28;20678;-80
2021/09/24 12:04:57;;;;;;;23.15;16.17;;;19.10;99.90;;;;;;5056717;28;20230;-80
2021/09/24 12:07:24;;;;;;;25.80;18.13;;;19.10;99.90;;;;;;5057088;28;20321;-80
2021/09/24 12:09:57;;;;;;;24.35;16.75;;;19.20;99.90;;;;;;5049135;28;20202;-80
2021/09/24 12:12:23;;;;;;;28.05;19.77;;;19.20;99.90;;;;;;5049255;28;20593;-80
2021/09/24 12:14:56;;;;;;;28.95;19.17;;;19.10;99.90;;;;;;5053111;28;20209;-80
2021/09/24 12:17:26;;;;;;;29.88;21.00;;;19.20;99.90;;;;;;5056947;28;20225;-80
2021/09/24 12:19:53;;;;;;;28.88;20.15;;;19.10;99.90;;;;;;5053892;28;20207;-80
2021/09/24 12:22:20;;;;;;;28.58;21.20;;;19.20;99.90;;;;;;5053938;28;20626;-79
2021/09/24 12:24:47;;;;;;;29.05;20.75;;;19.10;99.90;;;;;;5054643;28;20214;-81
2021/09/24 12:27:19;;;;;;;29.10;20.60;;;19.00;99.90;;;;;;5054462;28;20231;-81
2021/09/24 12:29:48;;;;;;;29.85;23.30;;;19.00;99.90;;;;;;5057954;28;20202;-81
2021/09/24 12:32:17;;;;;;;30.83;21.60;;;19.00;99.90;;;;;;5056279;28;20259;-81
2021/09/24 12:34:48;;;;;;;30.38;21.30;;;19.00;99.90;;;;;;5052078;28;20286;-80
2021/09/24 12:37:16;;;;;;;34.35;21.80;;;19.00;99.90;;;;;;5049337;28;20216;-81
2021/09/24 12:39:54;;;;;;;34.45;23.73;;;19.00;99.90;;;;;;5049659;28;20210;-80
2021/09/24 12:42:21;;;;;;;32.33;22.63;;;19.00;99.90;;;;;;5048250;28;20234;-80
2021/09/24 12:44:50;;;;;;;34.72;23.85;;;18.90;99.90;;;;;;5050871;28;20203;-81
2021/09/24 12:47:22;;;;;;;35.85;22.30;;;18.80;99.90;;;;;;5045966;28;20233;-81